LHA5409 DTTJ-EDDB
Flight info
| Callsign | LHA5409 |
|---|---|
| Flight time | N/A |
| Altitude | 32000 |
| Route | LILNA J735 RELBA UM735 BABLO DCT MEGAN DCT SUMIR DCT BRENO DCT ALUTU DCT RUDNO T203 TIVDA DCT ETVIS DCT NAVEK DCT GAVLI T203 ATGUP |
| Aircraft | A319/M-SDE1E2FGIRWYZ/S |
Departure
| Time | 2026-04-25 09:37 |
|---|---|
| Airport | Djerba Zarzis International Airport (DTTJ) |
Arrival
| Time | N/A |
|---|---|
| Airport | Berlin Brandenburg Airport (EDDB) |
| Time | Latitude | Longitude | Altitude | Speed | Heading |
|---|---|---|---|---|---|
| 2026-04-25 09:34 | 33.87343 | 10.76253 | 12 ft | 0 kts | 269° |
| 2026-04-25 09:34 | 33.87343 | 10.76240 | 12 ft | 2 kts | 268° |
| 2026-04-25 09:34 | 33.87342 | 10.76217 | 12 ft | 3 kts | 268° |
| 2026-04-25 09:35 | 33.87342 | 10.76211 | 12 ft | 1 kts | 268° |
| 2026-04-25 09:35 | 33.87342 | 10.76193 | 12 ft | 5 kts | 268° |
| 2026-04-25 09:35 | 33.87344 | 10.76108 | 12 ft | 12 kts | 286° |
| 2026-04-25 09:35 | 33.87410 | 10.76048 | 12 ft | 13 kts | 355° |
| 2026-04-25 09:36 | 33.87498 | 10.76070 | 12 ft | 13 kts | 50° |
| 2026-04-25 09:36 | 33.87507 | 10.76180 | 12 ft | 12 kts | 90° |
| 2026-04-25 09:36 | 33.87510 | 10.76292 | 12 ft | 14 kts | 88° |
| 2026-04-25 09:36 | 33.87519 | 10.76683 | 12 ft | 83 kts | 89° |
| 2026-04-25 09:37 | 33.87549 | 10.77649 | 22 ft | 145 kts | 88° |
| 2026-04-25 09:37 | 33.87566 | 10.78953 | 505 ft | 156 kts | 91° |
| 2026-04-25 09:37 | 33.87655 | 10.80212 | 1175 ft | 155 kts | 65° |
| 2026-04-25 09:37 | 33.88482 | 10.81016 | 1800 ft | 168 kts | 13° |
| 2026-04-25 09:38 | 33.89669 | 10.80735 | 2313 ft | 190 kts | 335° |
| 2026-04-25 09:38 | 33.90848 | 10.79920 | 2862 ft | 207 kts | 333° |
| 2026-04-25 09:38 | 33.92169 | 10.79067 | 3459 ft | 221 kts | 340° |
| 2026-04-25 09:38 | 33.93677 | 10.78751 | 3925 ft | 232 kts | 9° |
| 2026-04-25 09:39 | 33.95295 | 10.79179 | 4413 ft | 248 kts | 19° |
| 2026-04-25 09:39 | 33.96961 | 10.79807 | 5119 ft | 256 kts | 19° |
| 2026-04-25 09:39 | 33.98655 | 10.80432 | 5683 ft | 258 kts | 18° |
| 2026-04-25 09:40 | 34.02125 | 10.81637 | 6800 ft | 264 kts | 18° |
| 2026-04-25 09:40 | 34.03883 | 10.82230 | 7735 ft | 263 kts | 17° |
| 2026-04-25 09:40 | 34.05621 | 10.82806 | 8604 ft | 264 kts | 16° |
| 2026-04-25 09:40 | 34.07371 | 10.83389 | 9413 ft | 266 kts | 14° |
| 2026-04-25 09:41 | 34.09166 | 10.83978 | 10206 ft | 269 kts | 14° |
| 2026-04-25 09:41 | 34.10991 | 10.84579 | 10815 ft | 278 kts | 13° |
| 2026-04-25 09:41 | 34.12907 | 10.85203 | 11166 ft | 296 kts | 13° |
| 2026-04-25 09:41 | 34.14949 | 10.85867 | 11482 ft | 314 kts | 13° |
| 2026-04-25 09:42 | 34.17105 | 10.86570 | 11825 ft | 330 kts | 13° |
| 2026-04-25 09:42 | 34.19339 | 10.87303 | 12426 ft | 337 kts | 13° |
| 2026-04-25 09:42 | 34.21585 | 10.88041 | 13147 ft | 339 kts | 13° |
| 2026-04-25 09:42 | 34.23873 | 10.88794 | 13856 ft | 342 kts | 13° |
| 2026-04-25 09:43 | 34.26163 | 10.89547 | 14524 ft | 345 kts | 12° |
| 2026-04-25 09:43 | 34.28466 | 10.90304 | 15178 ft | 347 kts | 13° |
| 2026-04-25 09:43 | 34.30788 | 10.91079 | 15806 ft | 350 kts | 13° |
| 2026-04-25 09:43 | 34.33131 | 10.91865 | 16424 ft | 353 kts | 13° |
| 2026-04-25 09:44 | 34.35517 | 10.92668 | 17034 ft | 356 kts | 13° |
| 2026-04-25 09:44 | 34.37889 | 10.93467 | 17639 ft | 358 kts | 13° |
| 2026-04-25 09:44 | 34.40298 | 10.94279 | 18208 ft | 360 kts | 13° |
| 2026-04-25 09:44 | 34.42701 | 10.95090 | 18759 ft | 363 kts | 13° |
| 2026-04-25 09:45 | 34.45121 | 10.95906 | 19304 ft | 365 kts | 13° |
| 2026-04-25 09:45 | 34.47562 | 10.96730 | 19829 ft | 367 kts | 13° |
| 2026-04-25 09:45 | 34.50020 | 10.97560 | 20341 ft | 370 kts | 13° |
| 2026-04-25 09:45 | 34.52486 | 10.98394 | 20852 ft | 372 kts | 13° |
| 2026-04-25 09:46 | 34.54998 | 10.99242 | 21348 ft | 374 kts | 13° |
| 2026-04-25 09:46 | 34.57502 | 11.00088 | 21823 ft | 376 kts | 13° |
| 2026-04-25 09:46 | 34.60010 | 11.00938 | 22302 ft | 377 kts | 13° |
| 2026-04-25 09:46 | 34.62524 | 11.01789 | 22754 ft | 379 kts | 13° |
| 2026-04-25 09:47 | 34.65047 | 11.02645 | 23192 ft | 381 kts | 13° |
| 2026-04-25 09:47 | 34.67611 | 11.03515 | 23630 ft | 383 kts | 13° |
| 2026-04-25 09:47 | 34.70169 | 11.04383 | 24046 ft | 385 kts | 13° |
| 2026-04-25 09:47 | 34.72736 | 11.05256 | 24458 ft | 387 kts | 13° |
| 2026-04-25 09:48 | 34.75347 | 11.06145 | 24854 ft | 389 kts | 13° |
| 2026-04-25 09:48 | 34.77943 | 11.07028 | 25240 ft | 391 kts | 13° |
| 2026-04-25 09:48 | 34.80550 | 11.07916 | 25623 ft | 392 kts | 13° |
| 2026-04-25 09:48 | 34.83155 | 11.08802 | 25997 ft | 394 kts | 13° |
| 2026-04-25 09:49 | 34.85811 | 11.09707 | 26374 ft | 395 kts | 13° |
| 2026-04-25 09:49 | 34.88462 | 11.10542 | 26713 ft | 396 kts | 11° |
| 2026-04-25 09:49 | 34.91144 | 11.11211 | 27056 ft | 397 kts | 8° |
| 2026-04-25 09:49 | 34.93870 | 11.11768 | 27492 ft | 396 kts | 7° |
| 2026-04-25 09:50 | 34.96556 | 11.12299 | 27985 ft | 393 kts | 7° |
| 2026-04-25 09:50 | 34.99239 | 11.12826 | 28476 ft | 391 kts | 7° |
| 2026-04-25 09:50 | 35.01909 | 11.13350 | 28941 ft | 388 kts | 7° |
| 2026-04-25 09:50 | 35.04557 | 11.13870 | 29383 ft | 387 kts | 6° |
| 2026-04-25 09:51 | 35.07174 | 11.14383 | 29806 ft | 385 kts | 6° |
| 2026-04-25 09:51 | 35.09804 | 11.14900 | 30217 ft | 383 kts | 6° |
| 2026-04-25 09:51 | 35.12434 | 11.15416 | 30643 ft | 382 kts | 6° |
| 2026-04-25 09:51 | 35.15047 | 11.15930 | 31058 ft | 380 kts | 7° |
| 2026-04-25 09:52 | 35.17647 | 11.16442 | 31449 ft | 379 kts | 7° |
| 2026-04-25 09:52 | 35.20232 | 11.16952 | 31738 ft | 380 kts | 7° |
| 2026-04-25 09:52 | 35.22849 | 11.17468 | 31963 ft | 383 kts | 7° |
| 2026-04-25 09:52 | 35.25479 | 11.17987 | 32127 ft | 386 kts | 7° |
| 2026-04-25 09:53 | 35.30764 | 11.19032 | 32140 ft | 387 kts | 7° |
| 2026-04-25 09:53 | 35.36082 | 11.20087 | 32142 ft | 387 kts | 7° |
| 2026-04-25 09:54 | 35.41362 | 11.21135 | 32143 ft | 387 kts | 7° |
| 2026-04-25 09:54 | 35.46681 | 11.22192 | 32143 ft | 387 kts | 7° |
| 2026-04-25 09:55 | 35.51973 | 11.23246 | 32143 ft | 387 kts | 7° |
| 2026-04-25 09:55 | 35.57280 | 11.24305 | 32143 ft | 387 kts | 7° |
| 2026-04-25 09:56 | 35.62565 | 11.25360 | 32143 ft | 387 kts | 7° |
| 2026-04-25 09:56 | 35.67868 | 11.26420 | 32143 ft | 387 kts | 7° |
| 2026-04-25 09:57 | 35.73184 | 11.27492 | 32143 ft | 387 kts | 7° |
| 2026-04-25 09:57 | 35.78467 | 11.28562 | 32143 ft | 387 kts | 7° |
| 2026-04-25 09:58 | 35.83782 | 11.29633 | 32143 ft | 388 kts | 7° |
| 2026-04-25 09:58 | 35.89069 | 11.30691 | 32143 ft | 387 kts | 7° |
| 2026-04-25 09:59 | 35.94384 | 11.31761 | 32143 ft | 387 kts | 7° |
| 2026-04-25 09:59 | 35.99662 | 11.32826 | 32143 ft | 388 kts | 7° |
| 2026-04-25 10:00 | 36.04965 | 11.33895 | 32143 ft | 387 kts | 7° |
| 2026-04-25 10:00 | 36.10282 | 11.34964 | 32144 ft | 387 kts | 7° |
| 2026-04-25 10:01 | 36.15573 | 11.36029 | 32144 ft | 387 kts | 7° |
| 2026-04-25 10:01 | 36.20886 | 11.37103 | 32143 ft | 387 kts | 7° |
| 2026-04-25 10:02 | 36.26150 | 11.38169 | 32143 ft | 387 kts | 7° |
| 2026-04-25 10:02 | 36.31477 | 11.39250 | 32143 ft | 387 kts | 7° |
| 2026-04-25 10:03 | 36.36756 | 11.40322 | 32143 ft | 387 kts | 7° |
| 2026-04-25 10:03 | 36.42052 | 11.41400 | 32143 ft | 387 kts | 7° |
| 2026-04-25 10:04 | 36.47347 | 11.42480 | 32143 ft | 387 kts | 7° |
| 2026-04-25 10:04 | 36.52452 | 11.43522 | 32143 ft | 387 kts | 7° |
| 2026-04-25 10:05 | 36.57762 | 11.44607 | 32143 ft | 387 kts | 7° |
| 2026-04-25 10:05 | 36.63037 | 11.45688 | 32143 ft | 387 kts | 7° |
| 2026-04-25 10:06 | 36.68330 | 11.46775 | 32143 ft | 387 kts | 7° |
| 2026-04-25 10:06 | 36.73619 | 11.47861 | 32143 ft | 387 kts | 7° |
| 2026-04-25 10:07 | 36.78913 | 11.48954 | 32143 ft | 387 kts | 7° |
| 2026-04-25 10:07 | 36.84098 | 11.50699 | 32143 ft | 391 kts | 16° |
| 2026-04-25 10:08 | 36.89026 | 11.53567 | 32144 ft | 394 kts | 24° |
| 2026-04-25 10:08 | 36.93798 | 11.56899 | 32143 ft | 395 kts | 24° |
| 2026-04-25 10:09 | 36.98583 | 11.60276 | 32143 ft | 395 kts | 24° |
| 2026-04-25 10:09 | 37.03360 | 11.63653 | 32143 ft | 396 kts | 24° |
| 2026-04-25 10:10 | 37.08127 | 11.67028 | 32142 ft | 397 kts | 24° |
| 2026-04-25 10:10 | 37.12934 | 11.70434 | 32144 ft | 398 kts | 24° |
| 2026-04-25 10:11 | 37.17728 | 11.73834 | 32143 ft | 398 kts | 24° |
| 2026-04-25 10:11 | 37.22544 | 11.77254 | 32143 ft | 398 kts | 24° |
| 2026-04-25 10:12 | 37.27354 | 11.80679 | 32143 ft | 398 kts | 24° |
| 2026-04-25 10:13 | 37.34565 | 11.85821 | 32143 ft | 398 kts | 24° |
| 2026-04-25 10:13 | 37.39339 | 11.89234 | 32143 ft | 399 kts | 24° |
| 2026-04-25 10:14 | 37.44156 | 11.92683 | 32143 ft | 398 kts | 24° |
| 2026-04-25 10:14 | 37.48954 | 11.96121 | 32142 ft | 398 kts | 24° |
| 2026-04-25 10:15 | 37.54036 | 11.98644 | 32136 ft | 389 kts | 9° |
| 2026-04-25 10:15 | 37.59335 | 11.99197 | 32131 ft | 385 kts | 356° |
| 2026-04-25 10:16 | 37.64659 | 11.98890 | 32123 ft | 384 kts | 355° |
| 2026-04-25 10:16 | 37.69986 | 11.98551 | 32118 ft | 385 kts | 355° |
| 2026-04-25 10:17 | 37.75318 | 11.98209 | 32117 ft | 385 kts | 355° |
| 2026-04-25 10:17 | 37.80628 | 11.97867 | 32117 ft | 385 kts | 355° |
| 2026-04-25 10:18 | 37.85979 | 11.97522 | 32117 ft | 385 kts | 355° |
| 2026-04-25 10:18 | 37.91291 | 11.97180 | 32117 ft | 385 kts | 355° |
| 2026-04-25 10:19 | 37.96605 | 11.96837 | 32117 ft | 385 kts | 355° |
| 2026-04-25 10:19 | 38.01939 | 11.96491 | 32117 ft | 385 kts | 355° |
| 2026-04-25 10:20 | 38.07259 | 11.96147 | 32117 ft | 385 kts | 355° |
| 2026-04-25 10:20 | 38.12578 | 11.95802 | 32118 ft | 385 kts | 355° |
| 2026-04-25 10:21 | 38.17923 | 11.95455 | 32117 ft | 385 kts | 355° |
| 2026-04-25 10:21 | 38.23238 | 11.95111 | 32117 ft | 385 kts | 355° |
| 2026-04-25 10:22 | 38.28569 | 11.94764 | 32117 ft | 385 kts | 355° |
| 2026-04-25 10:22 | 38.33883 | 11.94418 | 32117 ft | 385 kts | 355° |
| 2026-04-25 10:23 | 38.39213 | 11.94069 | 32117 ft | 385 kts | 355° |
| 2026-04-25 10:23 | 38.44530 | 11.93722 | 32117 ft | 385 kts | 355° |
| 2026-04-25 10:24 | 38.49840 | 11.93374 | 32117 ft | 385 kts | 355° |
| 2026-04-25 10:24 | 38.55176 | 11.93024 | 32117 ft | 385 kts | 355° |
| 2026-04-25 10:25 | 38.60497 | 11.92674 | 32117 ft | 385 kts | 355° |
| 2026-04-25 10:25 | 38.65833 | 11.92323 | 32117 ft | 385 kts | 355° |
| 2026-04-25 10:26 | 38.71138 | 11.91972 | 32117 ft | 385 kts | 355° |
| 2026-04-25 10:26 | 38.76491 | 11.91619 | 32117 ft | 385 kts | 355° |
| 2026-04-25 10:27 | 38.81795 | 11.91268 | 32117 ft | 384 kts | 355° |
| 2026-04-25 10:27 | 38.87123 | 11.90916 | 32117 ft | 385 kts | 355° |
| 2026-04-25 10:28 | 38.92446 | 11.90565 | 32116 ft | 385 kts | 355° |
| 2026-04-25 10:28 | 38.97778 | 11.90213 | 32116 ft | 386 kts | 355° |
| 2026-04-25 10:29 | 39.03126 | 11.89859 | 32116 ft | 387 kts | 354° |
| 2026-04-25 10:29 | 39.08511 | 11.89499 | 32117 ft | 388 kts | 354° |
| 2026-04-25 10:30 | 39.13879 | 11.89139 | 32118 ft | 388 kts | 354° |
| 2026-04-25 10:30 | 39.19231 | 11.88781 | 32117 ft | 388 kts | 354° |
| 2026-04-25 10:31 | 39.24612 | 11.88421 | 32117 ft | 388 kts | 354° |
| 2026-04-25 10:31 | 39.29966 | 11.88063 | 32117 ft | 388 kts | 354° |
| 2026-04-25 10:32 | 39.35332 | 11.87702 | 32117 ft | 388 kts | 354° |
| 2026-04-25 10:32 | 39.40698 | 11.87342 | 32117 ft | 388 kts | 354° |
| 2026-04-25 10:33 | 39.46089 | 11.86979 | 32117 ft | 388 kts | 354° |
| 2026-04-25 10:33 | 39.51459 | 11.86617 | 32117 ft | 388 kts | 354° |
| 2026-04-25 10:34 | 39.56819 | 11.86253 | 32117 ft | 388 kts | 354° |
| 2026-04-25 10:34 | 39.62176 | 11.85892 | 32117 ft | 388 kts | 354° |
| 2026-04-25 10:35 | 39.67543 | 11.85527 | 32117 ft | 388 kts | 354° |
| 2026-04-25 10:35 | 39.72904 | 11.85164 | 32116 ft | 388 kts | 354° |
| 2026-04-25 10:36 | 39.78289 | 11.84796 | 32111 ft | 388 kts | 354° |
| 2026-04-25 10:36 | 39.83646 | 11.84432 | 32103 ft | 388 kts | 354° |
| 2026-04-25 10:37 | 39.89024 | 11.84065 | 32096 ft | 388 kts | 354° |
| 2026-04-25 10:37 | 39.94379 | 11.83701 | 32092 ft | 389 kts | 354° |
| 2026-04-25 10:38 | 39.99789 | 11.83331 | 32091 ft | 388 kts | 354° |
| 2026-04-25 10:38 | 40.05143 | 11.82964 | 32090 ft | 389 kts | 354° |
| 2026-04-25 10:39 | 40.10562 | 11.82591 | 32092 ft | 388 kts | 354° |
| 2026-04-25 10:39 | 40.15948 | 11.82222 | 32091 ft | 388 kts | 354° |
| 2026-04-25 10:40 | 40.21299 | 11.81854 | 32091 ft | 388 kts | 354° |
| 2026-04-25 10:40 | 40.26677 | 11.81483 | 32090 ft | 388 kts | 354° |
| 2026-04-25 10:41 | 40.32067 | 11.81111 | 32090 ft | 388 kts | 354° |
| 2026-04-25 10:41 | 40.37419 | 11.80740 | 32090 ft | 388 kts | 354° |
| 2026-04-25 10:42 | 40.42804 | 11.80367 | 32091 ft | 388 kts | 354° |
| 2026-04-25 10:42 | 40.48192 | 11.79995 | 32090 ft | 388 kts | 354° |
| 2026-04-25 10:43 | 40.53562 | 11.79620 | 32090 ft | 388 kts | 354° |
| 2026-04-25 10:43 | 40.58934 | 11.79246 | 32091 ft | 388 kts | 354° |
| 2026-04-25 10:44 | 40.64313 | 11.78871 | 32090 ft | 388 kts | 354° |
| 2026-04-25 10:44 | 40.69685 | 11.78497 | 32090 ft | 388 kts | 354° |
| 2026-04-25 10:45 | 40.75063 | 11.78121 | 32091 ft | 388 kts | 354° |
| 2026-04-25 10:45 | 40.80427 | 11.77745 | 32091 ft | 388 kts | 354° |
| 2026-04-25 10:46 | 40.85827 | 11.77366 | 32090 ft | 388 kts | 354° |
| 2026-04-25 10:46 | 40.91196 | 11.76989 | 32090 ft | 388 kts | 354° |
| 2026-04-25 10:47 | 40.96576 | 11.76609 | 32091 ft | 388 kts | 354° |
| 2026-04-25 10:47 | 41.01952 | 11.76232 | 32090 ft | 388 kts | 354° |
| 2026-04-25 10:48 | 41.07313 | 11.75855 | 32090 ft | 389 kts | 354° |
| 2026-04-25 10:48 | 41.12698 | 11.75473 | 32092 ft | 389 kts | 354° |
| 2026-04-25 10:49 | 41.18090 | 11.75090 | 32091 ft | 389 kts | 354° |
| 2026-04-25 10:49 | 41.23471 | 11.74707 | 32091 ft | 389 kts | 354° |
| 2026-04-25 10:50 | 41.28876 | 11.74323 | 32090 ft | 389 kts | 354° |
| 2026-04-25 10:50 | 41.34248 | 11.73940 | 32090 ft | 389 kts | 354° |
| 2026-04-25 10:51 | 41.39652 | 11.73555 | 32090 ft | 389 kts | 354° |
| 2026-04-25 10:51 | 41.45032 | 11.73170 | 32090 ft | 389 kts | 354° |
| 2026-04-25 10:52 | 41.50416 | 11.72785 | 32090 ft | 389 kts | 354° |
| 2026-04-25 10:52 | 41.55807 | 11.72398 | 32091 ft | 389 kts | 354° |
| 2026-04-25 10:53 | 41.61185 | 11.72013 | 32091 ft | 389 kts | 354° |
| 2026-04-25 10:53 | 41.66569 | 11.71625 | 32091 ft | 389 kts | 354° |
| 2026-04-25 10:54 | 41.71984 | 11.71235 | 32090 ft | 389 kts | 354° |
| 2026-04-25 10:54 | 41.77339 | 11.70849 | 32090 ft | 389 kts | 354° |
| 2026-04-25 10:55 | 41.82732 | 11.70459 | 32091 ft | 389 kts | 354° |
| 2026-04-25 10:55 | 41.88121 | 11.70069 | 32090 ft | 389 kts | 354° |
| 2026-04-25 10:56 | 41.93538 | 11.69676 | 32090 ft | 389 kts | 354° |
| 2026-04-25 10:56 | 41.98918 | 11.69285 | 32090 ft | 389 kts | 354° |
| 2026-04-25 10:57 | 42.04308 | 11.68892 | 32090 ft | 389 kts | 354° |
| 2026-04-25 10:57 | 42.09697 | 11.68500 | 32090 ft | 389 kts | 354° |
| 2026-04-25 10:58 | 42.15096 | 11.68106 | 32091 ft | 390 kts | 354° |
| 2026-04-25 10:58 | 42.20487 | 11.67711 | 32091 ft | 390 kts | 354° |
| 2026-04-25 10:59 | 42.25881 | 11.67317 | 32091 ft | 390 kts | 354° |
| 2026-04-25 10:59 | 42.31290 | 11.66919 | 32090 ft | 390 kts | 354° |
| 2026-04-25 11:00 | 42.36686 | 11.66523 | 32091 ft | 390 kts | 354° |
| 2026-04-25 11:00 | 42.42080 | 11.66125 | 32090 ft | 389 kts | 354° |
| 2026-04-25 11:01 | 42.47443 | 11.65730 | 32091 ft | 390 kts | 354° |
| 2026-04-25 11:01 | 42.52846 | 11.65331 | 32093 ft | 389 kts | 354° |
| 2026-04-25 11:02 | 42.58221 | 11.64933 | 32097 ft | 389 kts | 354° |
| 2026-04-25 11:02 | 42.63631 | 11.64531 | 32100 ft | 389 kts | 354° |
| 2026-04-25 11:03 | 42.69022 | 11.64131 | 32101 ft | 390 kts | 354° |
| 2026-04-25 11:03 | 42.74394 | 11.63732 | 32101 ft | 389 kts | 354° |
| 2026-04-25 11:04 | 42.79818 | 11.63326 | 32103 ft | 389 kts | 354° |
| 2026-04-25 11:04 | 42.85191 | 11.62926 | 32103 ft | 389 kts | 354° |
| 2026-04-25 11:05 | 42.90585 | 11.62523 | 32103 ft | 389 kts | 354° |
| 2026-04-25 11:05 | 42.95977 | 11.62123 | 32104 ft | 389 kts | 353° |
| 2026-04-25 11:06 | 43.01328 | 11.61724 | 32104 ft | 388 kts | 353° |
| 2026-04-25 11:06 | 43.06688 | 11.61321 | 32104 ft | 388 kts | 353° |
| 2026-04-25 11:07 | 43.12065 | 11.60912 | 32106 ft | 388 kts | 353° |
| 2026-04-25 11:07 | 43.17453 | 11.60504 | 32106 ft | 388 kts | 353° |
| 2026-04-25 11:08 | 43.22805 | 11.60099 | 32106 ft | 388 kts | 353° |
| 2026-04-25 11:08 | 43.28186 | 11.59690 | 32108 ft | 388 kts | 353° |
| 2026-04-25 11:09 | 43.33543 | 11.59284 | 32111 ft | 388 kts | 353° |
| 2026-04-25 11:09 | 43.38903 | 11.58877 | 32113 ft | 388 kts | 353° |
| 2026-04-25 11:10 | 43.44270 | 11.58468 | 32115 ft | 388 kts | 353° |
| 2026-04-25 11:10 | 43.49657 | 11.58058 | 32115 ft | 388 kts | 353° |
| 2026-04-25 11:11 | 43.55008 | 11.57648 | 32115 ft | 388 kts | 353° |
| 2026-04-25 11:11 | 43.60381 | 11.57237 | 32115 ft | 388 kts | 353° |
| 2026-04-25 11:12 | 43.65744 | 11.56825 | 32115 ft | 388 kts | 353° |
| 2026-04-25 11:12 | 43.71121 | 11.56413 | 32115 ft | 388 kts | 353° |
| 2026-04-25 11:13 | 43.76476 | 11.56000 | 32115 ft | 388 kts | 353° |
| 2026-04-25 11:13 | 43.81838 | 11.55587 | 32113 ft | 388 kts | 353° |
| 2026-04-25 11:14 | 43.87220 | 11.55172 | 32111 ft | 388 kts | 353° |
| 2026-04-25 11:14 | 43.92568 | 11.54758 | 32110 ft | 388 kts | 353° |
| 2026-04-25 11:15 | 43.97946 | 11.54340 | 32110 ft | 388 kts | 353° |
| 2026-04-25 11:15 | 44.03301 | 11.53925 | 32107 ft | 388 kts | 353° |
| 2026-04-25 11:16 | 44.10736 | 11.53346 | 32084 ft | 388 kts | 353° |
| 2026-04-25 11:16 | 44.15393 | 11.52984 | 32066 ft | 388 kts | 353° |
| 2026-04-25 11:17 | 44.20772 | 11.52564 | 32049 ft | 388 kts | 353° |
| 2026-04-25 11:17 | 44.26141 | 11.52144 | 32041 ft | 388 kts | 353° |
| 2026-04-25 11:18 | 44.31541 | 11.51721 | 32037 ft | 389 kts | 353° |
| 2026-04-25 11:18 | 44.36923 | 11.51298 | 32036 ft | 389 kts | 353° |
| 2026-04-25 11:19 | 44.42298 | 11.50875 | 32036 ft | 388 kts | 353° |
| 2026-04-25 11:19 | 44.47676 | 11.50451 | 32036 ft | 389 kts | 353° |
| 2026-04-25 11:20 | 44.53061 | 11.50026 | 32036 ft | 389 kts | 353° |
| 2026-04-25 11:20 | 44.58422 | 11.49602 | 32036 ft | 389 kts | 353° |
| 2026-04-25 11:21 | 44.63794 | 11.49176 | 32036 ft | 389 kts | 353° |
| 2026-04-25 11:21 | 44.69183 | 11.48748 | 32036 ft | 389 kts | 353° |
| 2026-04-25 11:22 | 44.74539 | 11.48321 | 32036 ft | 389 kts | 353° |
| 2026-04-25 11:22 | 44.79927 | 11.47891 | 32036 ft | 388 kts | 353° |
| 2026-04-25 11:23 | 44.85327 | 11.47461 | 32036 ft | 388 kts | 353° |
| 2026-04-25 11:23 | 44.90688 | 11.47032 | 32036 ft | 389 kts | 353° |
| 2026-04-25 11:24 | 44.96061 | 11.46601 | 32036 ft | 389 kts | 353° |
| 2026-04-25 11:24 | 45.01462 | 11.46172 | 32036 ft | 389 kts | 352° |
| 2026-04-25 11:25 | 45.06843 | 11.45742 | 32035 ft | 390 kts | 352° |
| 2026-04-25 11:25 | 45.12265 | 11.45307 | 32037 ft | 391 kts | 351° |
| 2026-04-25 11:26 | 45.17657 | 11.44868 | 32036 ft | 391 kts | 351° |
| 2026-04-25 11:26 | 45.23064 | 11.44428 | 32036 ft | 391 kts | 351° |
| 2026-04-25 11:27 | 45.28450 | 11.43990 | 32036 ft | 391 kts | 351° |
| 2026-04-25 11:27 | 45.32973 | 11.43623 | 32036 ft | 391 kts | 351° |
| 2026-04-25 11:28 | 45.39285 | 11.43109 | 32036 ft | 391 kts | 351° |
| 2026-04-25 11:28 | 45.44684 | 11.42669 | 32036 ft | 391 kts | 351° |
| 2026-04-25 11:29 | 45.50099 | 11.42226 | 32036 ft | 391 kts | 351° |
| 2026-04-25 11:29 | 45.55515 | 11.41782 | 32036 ft | 390 kts | 351° |
| 2026-04-25 11:30 | 45.60892 | 11.41343 | 32036 ft | 391 kts | 351° |
| 2026-04-25 11:30 | 45.66299 | 11.40898 | 32036 ft | 391 kts | 351° |
| 2026-04-25 11:31 | 45.71719 | 11.40452 | 32036 ft | 391 kts | 351° |
| 2026-04-25 11:31 | 45.77113 | 11.40008 | 32036 ft | 390 kts | 351° |
| 2026-04-25 11:32 | 45.82512 | 11.39563 | 32033 ft | 391 kts | 351° |
| 2026-04-25 11:32 | 45.87929 | 11.39114 | 32028 ft | 391 kts | 351° |
| 2026-04-25 11:33 | 45.93338 | 11.38665 | 32020 ft | 391 kts | 351° |
| 2026-04-25 11:33 | 45.98752 | 11.38217 | 32013 ft | 391 kts | 351° |
| 2026-04-25 11:34 | 46.04139 | 11.37770 | 32009 ft | 391 kts | 351° |
| 2026-04-25 11:34 | 46.09551 | 11.37320 | 32008 ft | 391 kts | 351° |
| 2026-04-25 11:35 | 46.14982 | 11.36870 | 32008 ft | 391 kts | 351° |
| 2026-04-25 11:35 | 46.20385 | 11.36419 | 32008 ft | 391 kts | 351° |
| 2026-04-25 11:36 | 46.25815 | 11.36024 | 32008 ft | 392 kts | 353° |
| 2026-04-25 11:36 | 46.31253 | 11.36070 | 32008 ft | 394 kts | 355° |
| 2026-04-25 11:37 | 46.36709 | 11.36201 | 32007 ft | 394 kts | 355° |
| 2026-04-25 11:37 | 46.42193 | 11.36331 | 32008 ft | 394 kts | 355° |
| 2026-04-25 11:38 | 46.47639 | 11.36460 | 32007 ft | 394 kts | 355° |
| 2026-04-25 11:38 | 46.53103 | 11.36588 | 32008 ft | 394 kts | 355° |
| 2026-04-25 11:39 | 46.58563 | 11.36717 | 32008 ft | 394 kts | 355° |
| 2026-04-25 11:39 | 46.64010 | 11.36845 | 32008 ft | 394 kts | 355° |
| 2026-04-25 11:40 | 46.69490 | 11.36975 | 32008 ft | 394 kts | 355° |